地図

経路データ

SID SEASON NUMBER BASIN SUBBASIN NAME ISO_TIME NATURE LAT LON WMO_WIND WMO_PRES WMO_AGENCY TRACK_TYPE DIST2LAND LANDFALL IFLAG USA_AGENCY USA_ATCF_ID USA_LAT USA_LON USA_RECORD USA_STATUS USA_WIND USA_PRES USA_SSHS USA_R34_NE USA_R34_SE USA_R34_SW USA_R34_NW USA_R50_NE USA_R50_SE USA_R50_SW USA_R50_NW USA_R64_NE USA_R64_SE USA_R64_SW USA_R64_NW USA_POCI USA_ROCI USA_RMW USA_EYE TOKYO_LAT TOKYO_LON TOKYO_GRADE TOKYO_WIND TOKYO_PRES TOKYO_R50_DIR TOKYO_R50_LONG TOKYO_R50_SHORT TOKYO_R30_DIR TOKYO_R30_LONG TOKYO_R30_SHORT TOKYO_LAND CMA_LAT CMA_LON CMA_CAT CMA_WIND CMA_PRES HKO_LAT HKO_LON HKO_CAT HKO_WIND HKO_PRES NEWDELHI_LAT NEWDELHI_LON NEWDELHI_GRADE NEWDELHI_WIND NEWDELHI_PRES NEWDELHI_CI NEWDELHI_DP NEWDELHI_POCI REUNION_LAT REUNION_LON REUNION_TYPE REUNION_WIND REUNION_PRES REUNION_TNUM REUNION_CI REUNION_RMW REUNION_R34_NE REUNION_R34_SE REUNION_R34_SW REUNION_R34_NW REUNION_R50_NE REUNION_R50_SE REUNION_R50_SW REUNION_R50_NW REUNION_R64_NE REUNION_R64_SE REUNION_R64_SW REUNION_R64_NW BOM_LAT BOM_LON BOM_TYPE BOM_WIND BOM_PRES BOM_TNUM BOM_CI BOM_RMW BOM_R34_NE BOM_R34_SE BOM_R34_SW BOM_R34_NW BOM_R50_NE BOM_R50_SE BOM_R50_SW BOM_R50_NW BOM_R64_NE BOM_R64_SE BOM_R64_SW BOM_R64_NW BOM_ROCI BOM_POCI BOM_EYE BOM_POS_METHOD BOM_PRES_METHOD NADI_LAT NADI_LON NADI_CAT NADI_WIND NADI_PRES WELLINGTON_LAT WELLINGTON_LON WELLINGTON_WIND WELLINGTON_PRES DS824_LAT DS824_LON DS824_STAGE DS824_WIND DS824_PRES TD9636_LAT TD9636_LON TD9636_STAGE TD9636_WIND TD9636_PRES TD9635_LAT TD9635_LON TD9635_WIND TD9635_PRES TD9635_ROCI NEUMANN_LAT NEUMANN_LON NEUMANN_CLASS NEUMANN_WIND NEUMANN_PRES MLC_LAT MLC_LON MLC_CLASS MLC_WIND MLC_PRES USA_GUST BOM_GUST BOM_GUST_PER REUNION_GUST REUNION_GUST_PER USA_SEAHGT USA_SEARAD_NE USA_SEARAD_SE USA_SEARAD_SW USA_SEARAD_NW STORM_SPEED STORM_DIR
1895199N20088 1895 19 NI BB NOT_NAMED 1895-07-18 00:00:00 TS 19.6000 88.0000 main 156 142 _________O____ -1 19.6000 88.0000 TC 30 3 322
1895199N20088 1895 19 NI BB NOT_NAMED 1895-07-18 03:00:00 TS 19.7284 87.8934 main 142 122 _________PO___ -1 19.7925 87.8401 TC 30 19.6000 88.0000 1 4 326
1895199N20088 1895 19 NI BB NOT_NAMED 1895-07-18 06:00:00 TS 19.9244 87.7633 main 122 99 _________OP___ -1 20.0000 87.7000 TC 30 19.8111 87.8583 1 5 331
1895199N20088 1895 19 NI BB NOT_NAMED 1895-07-18 09:00:00 TS 20.1462 87.6484 main 91 70 _________PP___ -1 20.2350 87.5924 TC 30 20.0277 87.7231 1 5 337
1895199N20088 1895 19 NI BB NOT_NAMED 1895-07-18 12:00:00 TS 20.3777 87.5507 main 70 53 _________OP___ -1 20.5000 87.5000 TC 30 20.2555 87.6013 1 5 340
1895199N20088 1895 19 NI BB NOT_NAMED 1895-07-18 15:00:00 TS 20.6500 87.4500 main 52 41 _________PO___ -1 20.8000 87.4000 TC 30 20.5000 87.5000 1 6 342
1895199N20088 1895 19 NI BB NOT_NAMED 1895-07-18 18:00:00 TS 20.9322 87.3604 main 43 38 _________OP___ -1 21.1000 87.3000 TC 30 20.7645 87.4208 1 6 344
1895199N20088 1895 19 NI BB NOT_NAMED 1895-07-18 21:00:00 TS 21.1998 87.2833 main 38 15 _________PP___ -1 21.3574 87.2223 TC 30 21.0422 87.3443 1 6 342
1895199N20088 1895 19 NI BB NOT_NAMED 1895-07-19 00:00:00 TS 21.4619 87.1729 main 10 0 _________OP___ -1 21.6000 87.1000 TC 30 21.3238 87.2457 1 6 332
1895199N20088 1895 19 NI BB NOT_NAMED 1895-07-19 03:00:00 TS 21.7250 86.9900 main 0 0 _________PO___ -1 21.8500 86.8800 TC 30 21.6000 87.1000 1 7 321
1895199N20088 1895 19 NI BB NOT_NAMED 1895-07-19 06:00:00 TS 21.9706 86.7336 main 0 0 _________OP___ -1 22.1000 86.6000 TC 30 21.8412 86.8672 1 7 314
1895199N20088 1895 19 NI BB NOT_NAMED 1895-07-19 09:00:00 TS 22.2064 86.4474 main 0 0 _________PP___ -1 22.3350 86.3073 TC 30 22.0779 86.5874 1 7 312
1895199N20088 1895 19 NI BB NOT_NAMED 1895-07-19 12:00:00 TS 22.4628 86.1445 main 0 0 _________OP___ -1 22.6000 86.0000 TC 30 22.3256 86.2889 1 8 315
1895199N20088 1895 19 NI BB NOT_NAMED 1895-07-19 15:00:00 TS 22.7675 85.8388 main 0 0 _________PO___ -1 22.9351 85.6776 TC 30 22.6000 86.0000 1 9 321
1895199N20088 1895 19 NI BB NOT_NAMED 1895-07-19 18:00:00 TS 23.1289 85.5623 main 0 0 _________OP___ -1 23.3000 85.4000 TC 30 22.9578 85.7247 1 9 328
1895199N20088 1895 19 NI BB NOT_NAMED 1895-07-19 21:00:00 TS 23.5088 85.3367 main 0 0 _________PP___ -1 23.6799 85.2050 TC 30 23.3376 85.4685 1 8 334
1895199N20088 1895 19 NI BB NOT_NAMED 1895-07-20 00:00:00 TS 23.8493 85.1764 main 0 0 _________OP___ -1 24.0000 85.1000 TC 30 23.6985 85.2529 1 6 339
1895199N20088 1895 19 NI BB NOT_NAMED 1895-07-20 03:00:00 TS 24.0937 85.0887 main 0 0 _________PO___ -1 24.1875 85.0773 TC 30 24.0000 85.1000 1 4 346
1895199N20088 1895 19 NI BB NOT_NAMED 1895-07-20 06:00:00 TS 24.2407 85.0693 main 0 0 _________OP___ -1 24.3000 85.1000 TC 30 24.1813 85.0386 1 3 0
1895199N20088 1895 19 NI BB NOT_NAMED 1895-07-20 09:00:00 TS 24.3474 85.0695 main 0 0 _________PP___ -1 24.3925 85.1000 TC 30 24.3023 85.0391 1 2 7
1895199N20088 1895 19 NI BB NOT_NAMED 1895-07-20 12:00:00 TS 24.4485 85.0850 main 0 0 _________OP___ -1 24.5000 85.1000 TC 30 24.3971 85.0701 1 3 11
1895199N20088 1895 19 NI BB NOT_NAMED 1895-07-20 15:00:00 TS 24.5962 85.1037 main 0 0 _________PO___ -1 24.6925 85.1075 TC 30 24.5000 85.1000 1 3 0
1895199N20088 1895 19 NI BB NOT_NAMED 1895-07-20 18:00:00 TS 24.7502 85.1022 main 0 0 _________OP___ -1 24.9000 85.1000 TC 30 24.6379 85.1038 1 3 0
1895199N20088 1895 19 NI BB NOT_NAMED 1895-07-20 21:00:00 TS 24.9106 85.0738 main 0 0 _________PP___ -1 25.0650 85.0600 TC 30 24.8076 85.0830 1 3 347
1895199N20088 1895 19 NI BB NOT_NAMED 1895-07-21 00:00:00 TS 25.0657 85.0305 main 0 0 _________OP___ -1 25.2000 85.0000 TC 30 24.9985 85.0457 1 3 346
1895199N20088 1895 19 NI BB NOT_NAMED 1895-07-21 03:00:00 NR 25.2000 85.0000 main 0 __________O___ -1 TC 25.2000 85.0000 1 3 349

IBTrACS Databaseについて

本データベースは、米国NOAAが公開する1842年以降の世界の熱帯低気圧のベストトラックデータアーカイブInternational Best Track Archive for Climate Stewardship (IBTrACS)を、ウェブで閲覧しやすい形式に変換したものです。

最終更新日:2021-10-21